Time;durP1;ratioP1;P1;durP2;ratioP2;P2;SDS_P1;SDS_P2;PMS_P1;PMS_P2;Temp;Humidity;BMP_temperature;BMP_pressure;BME280_temperature;BME280_humidity;BME280_pressure;Samples;Min_cycle;Max_cycle;Signal;HPM_P1;HPM_P2
2021/11/29 00:00:17;;;;;;;17.77;12.20;;;;;;;;;;5034542;28;20486;-65
2021/11/29 00:02:46;;;;;;;20.40;11.70;;;;;;;;;;5017139;28;20042;-64
2021/11/29 00:05:12;;;;;;;20.10;12.57;;;;;;;;;;5034743;28;20037;-63
2021/11/29 00:07:37;;;;;;;21.15;12.27;;;;;;;;;;5034580;28;20063;-63
2021/11/29 00:10:17;;;;;;;20.42;12.85;;;;;;;;;;5034726;28;20489;-65
2021/11/29 00:12:54;;;;;;;21.70;12.45;;;;;;;;;;5001798;28;20040;-65
2021/11/29 00:15:20;;;;;;;20.83;11.80;;;;;;;;;;5034546;28;20037;-64
2021/11/29 00:17:45;;;;;;;17.48;10.95;;;;;;;;;;5034477;28;20038;-64
2021/11/29 00:20:13;;;;;;;18.40;11.85;;;;;;;;;;5034498;28;20124;-64
2021/11/29 00:22:39;;;;;;;18.42;11.90;;;;;;;;;;5016663;28;20088;-64
2021/11/29 00:25:10;;;;;;;19.50;11.82;;;;;;;;;;5034418;28;20025;-70
2021/11/29 00:28:11;;;;;;;22.30;12.50;;;;;;;;;;5034292;28;20124;-70
2021/11/29 00:30:55;;;;;;;19.50;12.30;;;;;;;;;;5002461;28;20038;-70
2021/11/29 00:33:21;;;;;;;19.70;12.57;;;;;;;;;;5034090;28;20040;-64
2021/11/29 00:35:46;;;;;;;22.20;12.25;;;;;;;;;;5016296;28;20067;-64
2021/11/29 00:38:12;;;;;;;19.90;12.43;;;;;;;;;;5034208;28;20037;-64
2021/11/29 00:40:39;;;;;;;16.90;10.07;;;;;;;;;;5034155;28;20037;-65
2021/11/29 00:43:05;;;;;;;18.83;11.75;;;;;;;;;;5033836;28;20033;-65
2021/11/29 00:45:32;;;;;;;20.48;12.38;;;;;;;;;;5034019;28;20056;-64
2021/11/29 00:47:58;;;;;;;16.35;11.07;;;;;;;;;;5033904;28;20485;-73
2021/11/29 00:50:25;;;;;;;17.13;10.63;;;;;;;;;;5033889;28;20053;-74
2021/11/29 00:52:50;;;;;;;20.23;11.90;;;;;;;;;;5016165;28;20030;-73
2021/11/29 00:55:17;;;;;;;17.00;10.63;;;;;;;;;;5015999;28;20385;-73
2021/11/29 00:57:43;;;;;;;20.27;12.82;;;;;;;;;;5033870;28;20032;-73
2021/11/29 01:00:14;;;;;;;20.63;13.02;;;;;;;;;;5015917;28;20053;-73
2021/11/29 01:02:40;;;;;;;19.25;11.73;;;;;;;;;;5016175;28;20034;-73
2021/11/29 01:05:07;;;;;;;17.13;10.75;;;;;;;;;;5033621;28;20172;-65
2021/11/29 01:07:32;;;;;;;21.15;11.55;;;;;;;;;;5033520;28;20095;-65
2021/11/29 01:09:58;;;;;;;18.70;11.82;;;;;;;;;;5033488;28;20436;-65
2021/11/29 01:12:23;;;;;;;18.30;12.23;;;;;;;;;;5033522;28;20490;-65
2021/11/29 01:14:49;;;;;;;18.65;11.77;;;;;;;;;;5033499;28;20075;-65
2021/11/29 01:17:14;;;;;;;16.23;11.10;;;;;;;;;;5033414;28;20041;-65
2021/11/29 01:19:40;;;;;;;17.50;11.38;;;;;;;;;;5033293;28;20033;-65
2021/11/29 01:22:06;;;;;;;14.48;10.55;;;;;;;;;;5015653;28;20086;-67
2021/11/29 01:24:31;;;;;;;17.70;11.48;;;;;;;;;;5015557;28;20036;-72
2021/11/29 01:26:57;;;;;;;19.08;11.63;;;;;;;;;;5033099;28;20052;-72
2021/11/29 01:29:23;;;;;;;22.55;11.88;;;;;;;;;;5033117;28;20508;-72
2021/11/29 01:31:49;;;;;;;19.63;11.55;;;;;;;;;;5033213;28;20040;-72
2021/11/29 01:34:14;;;;;;;17.10;11.07;;;;;;;;;;5033285;28;20033;-72
2021/11/29 01:36:40;;;;;;;19.73;12.02;;;;;;;;;;5032914;28;20033;-66
2021/11/29 01:39:06;;;;;;;21.42;11.15;;;;;;;;;;5033060;28;20056;-66
2021/11/29 01:41:32;;;;;;;17.35;11.88;;;;;;;;;;5015273;28;20052;-67
2021/11/29 01:43:57;;;;;;;17.73;11.20;;;;;;;;;;5032834;28;20033;-67
2021/11/29 01:46:23;;;;;;;20.23;12.02;;;;;;;;;;5032738;28;20037;-67
2021/11/29 01:48:50;;;;;;;18.50;11.52;;;;;;;;;;5032697;28;20067;-66
2021/11/29 01:51:15;;;;;;;18.63;11.30;;;;;;;;;;5032545;28;20065;-65
2021/11/29 01:53:41;;;;;;;17.40;11.50;;;;;;;;;;5032398;28;20057;-66
2021/11/29 01:56:06;;;;;;;17.27;11.40;;;;;;;;;;5032598;28;20034;-66
2021/11/29 01:58:33;;;;;;;20.00;12.38;;;;;;;;;;5032135;28;20045;-73
2021/11/29 02:01:00;;;;;;;16.17;10.20;;;;;;;;;;5032805;28;20132;-72
2021/11/29 02:03:27;;;;;;;19.05;10.40;;;;;;;;;;5015029;28;20041;-71
2021/11/29 02:05:53;;;;;;;21.85;12.15;;;;;;;;;;5032510;28;20045;-71
2021/11/29 02:08:18;;;;;;;19.00;11.25;;;;;;;;;;5014710;28;20041;-72
2021/11/29 02:10:44;;;;;;;17.52;11.18;;;;;;;;;;5032386;28;20049;-72
2021/11/29 02:13:10;;;;;;;18.20;11.13;;;;;;;;;;5032522;28;20156;-72
2021/11/29 02:15:37;;;;;;;19.85;11.20;;;;;;;;;;5032425;28;20386;-72
2021/11/29 02:18:03;;;;;;;16.42;10.77;;;;;;;;;;5014679;28;20021;-65
2021/11/29 02:20:30;;;;;;;20.42;11.73;;;;;;;;;;5032311;28;20515;-65
2021/11/29 02:22:55;;;;;;;19.45;10.75;;;;;;;;;;5032312;28;20282;-65
2021/11/29 02:25:21;;;;;;;17.17;10.20;;;;;;;;;;5032272;28;20499;-65
2021/11/29 02:27:48;;;;;;;21.92;12.23;;;;;;;;;;5031874;28;20044;-65
2021/11/29 02:30:14;;;;;;;18.50;10.65;;;;;;;;;;5032258;28;20029;-65
2021/11/29 02:32:40;;;;;;;19.85;11.27;;;;;;;;;;5032150;28;20446;-71
2021/11/29 02:35:06;;;;;;;21.17;11.27;;;;;;;;;;5032257;28;20124;-65
2021/11/29 02:37:32;;;;;;;17.63;11.32;;;;;;;;;;5032111;28;20033;-71
2021/11/29 02:39:57;;;;;;;13.55;8.73;;;;;;;;;;5014562;28;20050;-71
2021/11/29 02:42:23;;;;;;;20.15;11.20;;;;;;;;;;5032099;28;20084;-71
2021/11/29 02:44:49;;;;;;;17.15;10.55;;;;;;;;;;5014367;28;20045;-71
2021/11/29 02:47:14;;;;;;;21.73;12.20;;;;;;;;;;5032024;28;20087;-71
2021/11/29 02:49:40;;;;;;;18.15;10.15;;;;;;;;;;5032157;28;20639;-72
2021/11/29 02:52:10;;;;;;;16.08;9.88;;;;;;;;;;5032094;28;20029;-72
2021/11/29 02:54:36;;;;;;;16.30;10.10;;;;;;;;;;5032090;28;20042;-72
2021/11/29 02:57:03;;;;;;;17.45;10.80;;;;;;;;;;5032079;28;20264;-72
2021/11/29 02:59:30;;;;;;;15.77;10.32;;;;;;;;;;5013755;28;20452;-66
2021/11/29 03:01:57;;;;;;;16.98;10.13;;;;;;;;;;5031747;28;20045;-68
2021/11/29 03:04:23;;;;;;;18.42;9.95;;;;;;;;;;5015356;28;20029;-68
2021/11/29 03:06:49;;;;;;;14.93;9.95;;;;;;;;;;5035767;28;20131;-68
2021/11/29 03:09:15;;;;;;;16.52;10.82;;;;;;;;;;5035714;28;20497;-68
2021/11/29 03:11:41;;;;;;;18.90;10.82;;;;;;;;;;5035725;28;20458;-65
2021/11/29 03:14:07;;;;;;;20.35;10.95;;;;;;;;;;5017879;28;20049;-65
2021/11/29 11:08:08;;;;;;;7.55;5.78;;;;;;;;;;5052576;28;20091;-66
2021/11/29 11:10:34;;;;;;;6.80;5.65;;;;;;;;;;5052590;28;20551;-66
2021/11/29 11:13:00;;;;;;;7.00;5.55;;;;;;;;;;5026369;28;20033;-66
2021/11/29 11:15:25;;;;;;;6.00;5.35;;;;;;;;;;5052760;28;20086;-66
2021/11/29 11:17:51;;;;;;;6.15;5.47;;;;;;;;;;5052541;28;20087;-66
2021/11/29 11:20:17;;;;;;;6.32;5.07;;;;;;;;;;5052518;28;20479;-65
2021/11/29 11:22:46;;;;;;;5.70;5.20;;;;;;;;;;5052413;28;20068;-66
2021/11/29 11:25:14;;;;;;;5.47;4.33;;;;;;;;;;5053518;28;20037;-66
2021/11/29 11:27:40;;;;;;;6.82;5.82;;;;;;;;;;5056094;28;20029;-66
2021/11/29 11:30:17;;;;;;;5.82;4.80;;;;;;;;;;5056280;28;20052;-66
2021/11/29 11:32:53;;;;;;;5.95;4.60;;;;;;;;;;5038256;28;20463;-66
2021/11/29 11:35:24;;;;;;;5.18;4.45;;;;;;;;;;5056193;28;20037;-66
2021/11/29 11:37:51;;;;;;;4.80;4.40;;;;;;;;;;5056124;28;20033;-66
2021/11/29 11:40:21;;;;;;;5.68;4.53;;;;;;;;;;5056237;28;20040;-66
2021/11/29 11:42:47;;;;;;;6.90;5.15;;;;;;;;;;5056134;28;20439;-65
2021/11/29 11:45:14;;;;;;;6.03;4.68;;;;;;;;;;5056210;28;20033;-67
2021/11/29 11:47:40;;;;;;;6.95;5.22;;;;;;;;;;5055877;28;20056;-66
2021/11/29 11:50:10;;;;;;;9.23;6.07;;;;;;;;;;5021547;28;20029;-66
2021/11/29 11:52:36;;;;;;;9.13;5.82;;;;;;;;;;5055768;28;20036;-66
2021/11/29 11:55:02;;;;;;;7.70;5.25;;;;;;;;;;5056026;28;20037;-66
2021/11/29 11:57:28;;;;;;;6.97;4.95;;;;;;;;;;5055925;28;20064;-66
2021/11/29 12:00:14;;;;;;;5.15;4.35;;;;;;;;;;5055560;28;20055;-66
2021/11/29 12:02:40;;;;;;;4.72;4.32;;;;;;;;;;5055798;28;20067;-66
2021/11/29 12:05:13;;;;;;;4.05;3.50;;;;;;;;;;5037989;28;20052;-66
2021/11/29 12:07:41;;;;;;;4.85;4.35;;;;;;;;;;5037865;28;20098;-66
2021/11/29 12:10:25;;;;;;;5.50;4.18;;;;;;;;;;5055576;28;20507;-66
2021/11/29 12:13:03;;;;;;;4.75;3.97;;;;;;;;;;5055522;28;20025;-66
2021/11/29 12:15:39;;;;;;;5.22;4.30;;;;;;;;;;5055496;28;20060;-66
2021/11/29 12:18:05;;;;;;;5.30;4.75;;;;;;;;;;5055348;28;20032;-66
2021/11/29 12:20:30;;;;;;;5.03;4.28;;;;;;;;;;5055405;28;20492;-66
2021/11/29 12:22:56;;;;;;;5.13;4.28;;;;;;;;;;5055273;28;20033;-66
2021/11/29 12:25:24;;;;;;;4.53;4.07;;;;;;;;;;5055226;28;20443;-66
2021/11/29 12:27:56;;;;;;;6.38;4.97;;;;;;;;;;5055082;28;20037;-66
2021/11/29 12:30:37;;;;;;;5.57;5.05;;;;;;;;;;5055227;28;20041;-66
2021/11/29 12:33:04;;;;;;;5.47;4.40;;;;;;;;;;5037294;28;20120;-66
2021/11/29 12:35:31;;;;;;;5.78;4.30;;;;;;;;;;5055156;28;20054;-66
2021/11/29 12:38:01;;;;;;;4.70;4.18;;;;;;;;;;5055077;28;20048;-66
2021/11/29 12:40:27;;;;;;;;;;;;;;;;;;5055544;28;20044;-66
2021/11/29 12:42:53;;;;;;;5.57;4.28;;;;;;;;;;5054964;28;20361;-66
2021/11/29 12:45:21;;;;;;;7.45;5.43;;;;;;;;;;5054963;28;20048;-66
2021/11/29 12:47:59;;;;;;;5.10;4.18;;;;;;;;;;5054745;28;20029;-66
2021/11/29 12:50:29;;;;;;;5.78;4.53;;;;;;;;;;5037117;28;20409;-66
2021/11/29 12:53:13;;;;;;;4.57;4.15;;;;;;;;;;5037032;28;20044;-66
2021/11/29 12:55:41;;;;;;;5.07;4.57;;;;;;;;;;5054882;28;20086;-66
2021/11/29 12:58:06;;;;;;;7.00;4.88;;;;;;;;;;5054537;28;20037;-66
2021/11/29 13:00:37;;;;;;;5.32;4.45;;;;;;;;;;5054749;28;20131;-66
2021/11/29 13:03:03;;;;;;;7.07;4.40;;;;;;;;;;5036916;28;20044;-66
2021/11/29 13:05:28;;;;;;;5.20;3.97;;;;;;;;;;5036775;28;20029;-66
2021/11/29 13:07:57;;;;;;;5.53;4.18;;;;;;;;;;5054536;28;20401;-66
2021/11/29 13:10:41;;;;;;;7.85;5.07;;;;;;;;;;5054426;28;20032;-66
2021/11/29 13:13:26;;;;;;;5.88;4.30;;;;;;;;;;5036736;28;20078;-66
2021/11/29 13:15:53;;;;;;;5.78;4.50;;;;;;;;;;5054383;28;20067;-65
2021/11/29 13:18:38;;;;;;;5.43;4.70;;;;;;;;;;5036478;28;20025;-65
2021/11/29 13:21:05;;;;;;;6.22;4.35;;;;;;;;;;5036454;28;20393;-65
2021/11/29 13:23:30;;;;;;;7.22;4.93;;;;;;;;;;5036372;28;20025;-65
2021/11/29 13:26:05;;;;;;;6.50;5.10;;;;;;;;;;5054306;28;20044;-65
2021/11/29 13:28:31;;;;;;;5.75;4.47;;;;;;;;;;5054053;28;20037;-65
2021/11/29 13:30:57;;;;;;;6.43;4.80;;;;;;;;;;5054138;28;20187;-65
2021/11/29 13:33:22;;;;;;;7.00;4.97;;;;;;;;;;5054009;28;20032;-65
2021/11/29 13:35:48;;;;;;;5.15;4.15;;;;;;;;;;5053893;28;20032;-64
2021/11/29 13:38:14;;;;;;;6.22;4.38;;;;;;;;;;5053870;28;20040;-64
2021/11/29 13:40:40;;;;;;;8.70;4.50;;;;;;;;;;5053605;28;20037;-65
2021/11/29 13:43:05;;;;;;;6.55;5.32;;;;;;;;;;5036005;28;20690;-64
2021/11/29 13:45:32;;;;;;;7.25;5.78;;;;;;;;;;5053727;28;20036;-65
2021/11/29 13:48:07;;;;;;;6.25;5.22;;;;;;;;;;5053139;28;20493;-65
2021/11/29 13:50:35;;;;;;;5.28;4.78;;;;;;;;;;5035851;28;20033;-65
2021/11/29 13:53:02;;;;;;;7.07;5.35;;;;;;;;;;5053715;28;20036;-65
2021/11/29 13:55:30;;;;;;;6.47;4.80;;;;;;;;;;5053697;28;20091;-64
2021/11/29 13:57:57;;;;;;;5.88;4.35;;;;;;;;;;5035702;28;20029;-64
2021/11/29 14:00:47;;;;;;;4.63;4.18;;;;;;;;;;5035549;28;20108;-64
2021/11/29 14:03:20;;;;;;;4.78;4.18;;;;;;;;;;5040531;28;20041;-64
2021/11/29 14:05:52;;;;;;;4.97;3.80;;;;;;;;;;5035480;28;20117;-64
2021/11/29 14:08:22;;;;;;;5.53;4.65;;;;;;;;;;5053397;28;20052;-65
2021/11/29 14:10:50;;;;;;;6.28;4.80;;;;;;;;;;5035725;28;20098;-63
2021/11/29 14:13:17;;;;;;;8.13;5.20;;;;;;;;;;5035558;28;20128;-65
2021/11/29 14:15:57;;;;;;;7.50;5.55;;;;;;;;;;5035607;28;20047;-66
2021/11/29 14:18:29;;;;;;;5.63;4.28;;;;;;;;;;5035403;28;20037;-66
2021/11/29 14:20:55;;;;;;;7.53;5.03;;;;;;;;;;5053317;28;20037;-66
2021/11/29 14:23:30;;;;;;;5.20;3.97;;;;;;;;;;5053144;28;20033;-66
2021/11/29 14:25:56;;;;;;;8.25;4.88;;;;;;;;;;5053264;28;20108;-66
2021/11/29 14:28:21;;;;;;;5.20;3.50;;;;;;;;;;5053150;28;20048;-67
2021/11/29 14:30:47;;;;;;;5.18;4.60;;;;;;;;;;5035232;28;20032;-66
2021/11/29 14:33:12;;;;;;;7.00;5.40;;;;;;;;;;5035095;28;20059;-67
2021/11/29 14:35:38;;;;;;;5.68;4.50;;;;;;;;;;5053084;28;20053;-66
2021/11/29 14:38:03;;;;;;;6.32;5.00;;;;;;;;;;5052543;28;20504;-66
2021/11/29 14:40:29;;;;;;;2.95;2.75;;;;;;;;;;5052871;28;20496;-66
2021/11/29 14:42:54;;;;;;;10.55;6.70;;;;;;;;;;5052948;28;20041;-66
2021/11/29 14:45:21;;;;;;;18.13;11.57;;;;;;;;;;5035102;28;20075;-66
2021/11/29 14:47:52;;;;;;;8.13;6.40;;;;;;;;;;5052870;28;20133;-66
2021/11/29 14:50:23;;;;;;;10.75;8.95;;;;;;;;;;5052633;28;20029;-66
2021/11/29 14:52:58;;;;;;;9.77;7.63;;;;;;;;;;5052758;28;20043;-66
2021/11/29 14:55:26;;;;;;;7.07;4.45;;;;;;;;;;5052795;28;20450;-66
2021/11/29 14:57:59;;;;;;;7.85;5.50;;;;;;;;;;5052888;28;20040;-66
2021/11/29 15:00:28;;;;;;;6.50;5.13;;;;;;;;;;5056031;28;20381;-66
2021/11/29 15:03:08;;;;;;;5.45;4.65;;;;;;;;;;5056932;28;20045;-66
2021/11/29 15:05:47;;;;;;;7.47;5.45;;;;;;;;;;5038485;28;20049;-66
2021/11/29 15:08:29;;;;;;;7.25;4.28;;;;;;;;;;5056665;28;20127;-65
2021/11/29 15:11:01;;;;;;;6.80;5.55;;;;;;;;;;5056752;28;20088;-66
2021/11/29 15:13:41;;;;;;;7.57;5.32;;;;;;;;;;5056751;28;20072;-66
2021/11/29 15:16:25;;;;;;;9.00;5.60;;;;;;;;;;5056630;28;20485;-65
2021/11/29 15:18:55;;;;;;;5.82;4.40;;;;;;;;;;5056477;28;20048;-66
2021/11/29 15:21:28;;;;;;;7.00;5.10;;;;;;;;;;5056009;28;20408;-67
2021/11/29 15:23:54;;;;;;;6.93;4.97;;;;;;;;;;5056574;28;20090;-65
2021/11/29 15:26:33;;;;;;;5.32;4.78;;;;;;;;;;5038814;28;20025;-66
2021/11/29 15:28:59;;;;;;;5.75;4.05;;;;;;;;;;5056384;28;20499;-65
2021/11/29 15:31:34;;;;;;;5.95;4.28;;;;;;;;;;5038364;28;20128;-66
2021/11/29 15:34:04;;;;;;;4.55;4.13;;;;;;;;;;5055837;28;20103;-66
2021/11/29 15:36:30;;;;;;;5.45;4.47;;;;;;;;;;5056241;28;20499;-65
2021/11/29 15:38:55;;;;;;;6.63;5.13;;;;;;;;;;5038315;28;20044;-66
2021/11/29 15:41:21;;;;;;;9.00;5.55;;;;;;;;;;5056147;28;20029;-66
2021/11/29 15:43:49;;;;;;;7.80;5.13;;;;;;;;;;5056296;28;20439;-66
2021/11/29 15:46:22;;;;;;;8.48;5.80;;;;;;;;;;5056102;28;20033;-66
2021/11/29 15:48:52;;;;;;;5.88;4.68;;;;;;;;;;5038223;28;20037;-65
2021/11/29 15:51:24;;;;;;;3.10;2.38;;;;;;;;;;5038100;28;20120;-65
2021/11/29 15:53:50;;;;;;;6.38;4.38;;;;;;;;;;5038154;28;20098;-67
2021/11/29 15:56:17;;;;;;;3.05;2.70;;;;;;;;;;5055809;28;20481;-66
2021/11/29 15:58:42;;;;;;;4.60;3.28;;;;;;;;;;5055442;28;20082;-66
2021/11/29 16:01:10;;;;;;;4.75;3.60;;;;;;;;;;5037951;28;20502;-66
2021/11/29 16:03:36;;;;;;;4.80;3.30;;;;;;;;;;5054005;28;20029;-67
2021/11/29 16:06:01;;;;;;;4.38;3.33;;;;;;;;;;5055130;28;20430;-66
2021/11/29 16:08:27;;;;;;;4.70;3.90;;;;;;;;;;5054937;28;20048;-65
2021/11/29 16:10:53;;;;;;;6.47;3.72;;;;;;;;;;5054407;28;20539;-65
2021/11/29 16:13:19;;;;;;;7.25;5.25;;;;;;;;;;5054841;28;20037;-66
2021/11/29 16:15:45;;;;;;;5.47;4.25;;;;;;;;;;5037084;28;20032;-65
2021/11/29 16:18:11;;;;;;;5.38;4.22;;;;;;;;;;5036847;28;20044;-66
2021/11/29 16:20:37;;;;;;;3.83;3.35;;;;;;;;;;5054851;28;20033;-65
2021/11/29 16:23:03;;;;;;;4.47;2.88;;;;;;;;;;5036615;28;20073;-66
2021/11/29 16:25:28;;;;;;;5.10;3.88;;;;;;;;;;5028613;28;20036;-65
2021/11/29 16:27:54;;;;;;;3.45;3.13;;;;;;;;;;5050060;28;20128;-66
2021/11/29 16:30:32;;;;;;;4.55;3.60;;;;;;;;;;5050685;28;20072;-66
2021/11/29 16:32:59;;;;;;;3.95;2.88;;;;;;;;;;5032163;28;20040;-65
2021/11/29 16:35:24;;;;;;;3.13;2.70;;;;;;;;;;5032608;28;20144;-66
2021/11/29 16:37:50;;;;;;;3.63;3.25;;;;;;;;;;5034209;28;20131;-67
2021/11/29 16:40:17;;;;;;;4.25;3.28;;;;;;;;;;5051657;28;20045;-67
2021/11/29 16:42:43;;;;;;;4.20;3.17;;;;;;;;;;5051814;28;20033;-66
2021/11/29 16:45:09;;;;;;;4.45;3.22;;;;;;;;;;5033749;28;20037;-66
2021/11/29 16:47:34;;;;;;;4.35;3.53;;;;;;;;;;5033754;28;20039;-66
2021/11/29 16:50:00;;;;;;;5.25;4.20;;;;;;;;;;5051730;28;20032;-66
2021/11/29 16:52:26;;;;;;;6.75;4.78;;;;;;;;;;5033354;28;20127;-65
2021/11/29 16:54:51;;;;;;;8.05;5.13;;;;;;;;;;5033322;28;20130;-67
2021/11/29 16:57:17;;;;;;;5.35;4.25;;;;;;;;;;5051509;28;20052;-66
2021/11/29 16:59:42;;;;;;;5.50;4.50;;;;;;;;;;5016558;28;20044;-65
2021/11/29 17:02:08;;;;;;;4.13;3.58;;;;;;;;;;5050825;28;20761;-65
2021/11/29 17:04:33;;;;;;;5.65;4.20;;;;;;;;;;5051304;28;20037;-66
2021/11/29 17:06:59;;;;;;;4.85;4.10;;;;;;;;;;5016730;28;20036;-66
2021/11/29 17:09:24;;;;;;;4.70;4.25;;;;;;;;;;5033579;28;20084;-66
2021/11/29 17:11:50;;;;;;;5.72;4.38;;;;;;;;;;5051635;28;20044;-66
2021/11/29 17:14:16;;;;;;;4.72;4.07;;;;;;;;;;5051266;28;20068;-66
2021/11/29 17:16:42;;;;;;;3.10;2.83;;;;;;;;;;5051182;28;20032;-64
2021/11/29 17:19:08;;;;;;;6.38;4.75;;;;;;;;;;5051284;28;20144;-66
2021/11/29 17:21:36;;;;;;;6.22;4.65;;;;;;;;;;5032624;28;20037;-65
2021/11/29 17:24:02;;;;;;;7.55;5.78;;;;;;;;;;5031320;28;20041;-67
2021/11/29 17:26:28;;;;;;;5.80;4.85;;;;;;;;;;5021512;28;20034;-66
2021/11/29 17:28:53;;;;;;;7.40;5.35;;;;;;;;;;5030621;28;20053;-66
2021/11/29 17:31:19;;;;;;;6.63;4.85;;;;;;;;;;5013034;28;20041;-65
2021/11/29 17:33:45;;;;;;;7.63;4.65;;;;;;;;;;5030698;28;20033;-66
2021/11/29 17:36:13;;;;;;;7.68;5.78;;;;;;;;;;5012996;28;20028;-66
2021/11/29 17:38:39;;;;;;;8.43;5.80;;;;;;;;;;5030458;28;20092;-66
2021/11/29 17:41:04;;;;;;;5.93;4.38;;;;;;;;;;5030901;28;20493;-67
2021/11/29 17:43:32;;;;;;;3.47;2.33;;;;;;;;;;5030575;28;20044;-66
2021/11/29 17:45:58;;;;;;;10.25;5.32;;;;;;;;;;5030736;28;20028;-66
2021/11/29 17:48:26;;;;;;;4.75;3.35;;;;;;;;;;5030334;28;20549;-66
2021/11/29 17:50:52;;;;;;;7.88;5.78;;;;;;;;;;5030405;28;20033;-66
2021/11/29 17:53:18;;;;;;;8.43;4.97;;;;;;;;;;5030349;28;20033;-66
2021/11/29 17:56:03;;;;;;;8.20;6.03;;;;;;;;;;5065560;28;20474;-65
2021/11/29 17:58:29;;;;;;;9.32;5.85;;;;;;;;;;5067469;28;20035;-65
2021/11/29 18:00:54;;;;;;;9.32;5.68;;;;;;;;;;5067231;28;20017;-65
2021/11/29 18:03:21;;;;;;;8.02;6.05;;;;;;;;;;5067236;28;20028;-66
2021/11/29 18:05:49;;;;;;;6.18;4.25;;;;;;;;;;5067458;28;20343;-66
2021/11/29 18:13:29;;;;;;;8.77;6.28;;;;;;;;;;5065219;28;20021;-65
2021/11/29 18:15:55;;;;;;;8.02;5.75;;;;;;;;;;5064979;28;20023;-65
2021/11/29 18:18:22;;;;;;;9.82;6.28;;;;;;;;;;5066633;28;20032;-66
2021/11/29 18:20:47;;;;;;;10.57;6.75;;;;;;;;;;5066576;28;20031;-65
2021/11/29 18:23:14;;;;;;;11.43;6.60;;;;;;;;;;5066527;28;20033;-65
2021/11/29 18:25:39;;;;;;;10.05;6.55;;;;;;;;;;5066774;28;20020;-65
2021/11/29 18:28:07;;;;;;;8.93;6.05;;;;;;;;;;5066849;28;20029;-66
2021/11/29 18:30:32;;;;;;;10.00;6.93;;;;;;;;;;5066660;28;20147;-65
2021/11/29 18:32:58;;;;;;;11.38;7.93;;;;;;;;;;5066368;28;20127;-65
2021/11/29 18:35:24;;;;;;;9.73;6.60;;;;;;;;;;5066708;28;20140;-65
2021/11/29 18:37:50;;;;;;;8.48;5.93;;;;;;;;;;5066065;28;20031;-66
2021/11/29 18:40:18;;;;;;;8.35;5.88;;;;;;;;;;5064286;28;20036;-65
2021/11/29 18:42:44;;;;;;;9.02;6.47;;;;;;;;;;5064464;28;20025;-65
2021/11/29 18:45:11;;;;;;;8.70;6.38;;;;;;;;;;5064947;28;20058;-65
2021/11/29 18:47:37;;;;;;;9.25;7.65;;;;;;;;;;5064856;28;20495;-66
2021/11/29 18:50:03;;;;;;;8.32;5.95;;;;;;;;;;5064776;28;20029;-66
2021/11/29 18:52:31;;;;;;;8.68;6.30;;;;;;;;;;5062575;28;20126;-65
2021/11/29 18:54:56;;;;;;;8.90;6.93;;;;;;;;;;5063668;28;20064;-65
2021/11/29 18:57:22;;;;;;;10.10;7.20;;;;;;;;;;5064511;28;20230;-65
2021/11/29 18:59:48;;;;;;;7.00;5.10;;;;;;;;;;5063213;28;20025;-65
2021/11/29 19:02:13;;;;;;;9.63;6.18;;;;;;;;;;5063962;28;20044;-65
2021/11/29 19:04:39;;;;;;;10.00;6.07;;;;;;;;;;5064137;28;20029;-65
2021/11/29 19:07:05;;;;;;;11.77;8.63;;;;;;;;;;5051953;28;20767;-65
2021/11/29 19:09:32;;;;;;;7.97;6.25;;;;;;;;;;5051083;28;20028;-65
2021/11/29 19:11:58;;;;;;;11.18;7.68;;;;;;;;;;5050868;28;20094;-65
2021/11/29 19:14:23;;;;;;;11.88;7.97;;;;;;;;;;5050739;28;20029;-65
2021/11/29 19:16:49;;;;;;;10.05;7.72;;;;;;;;;;5050547;28;20116;-65
2021/11/29 19:19:15;;;;;;;12.00;8.35;;;;;;;;;;5051379;28;20471;-65
2021/11/29 19:21:41;;;;;;;10.65;7.28;;;;;;;;;;5050874;28;20029;-65
2021/11/29 19:24:07;;;;;;;8.43;5.85;;;;;;;;;;5050881;28;20367;-67
2021/11/29 19:26:34;;;;;;;10.98;8.10;;;;;;;;;;5050893;28;20037;-66
2021/11/29 19:29:01;;;;;;;8.35;6.35;;;;;;;;;;5050398;28;20049;-66
2021/11/29 19:31:28;;;;;;;12.95;8.55;;;;;;;;;;5050614;28;20025;-66
2021/11/29 19:33:54;;;;;;;9.40;6.88;;;;;;;;;;5050212;28;20029;-66
2021/11/29 19:36:20;;;;;;;13.30;7.38;;;;;;;;;;5050327;28;20532;-67
2021/11/29 19:38:46;;;;;;;9.60;6.60;;;;;;;;;;5048983;28;20033;-66
2021/11/29 19:43:49;;;;;;;10.70;7.13;;;;;;;;;;5050001;28;20086;-66
2021/11/29 19:46:14;;;;;;;10.57;7.30;;;;;;;;;;5048589;28;20013;-65
2021/11/29 19:48:41;;;;;;;14.25;8.85;;;;;;;;;;5049974;28;20045;-66
2021/11/29 19:51:06;;;;;;;10.25;8.00;;;;;;;;;;5049473;28;20056;-65
2021/11/29 19:53:32;;;;;;;7.70;5.10;;;;;;;;;;5048758;28;20055;-66
2021/11/29 19:55:58;;;;;;;7.90;5.28;;;;;;;;;;5050235;28;20049;-66
2021/11/29 19:58:24;;;;;;;9.60;7.03;;;;;;;;;;5049682;28;20025;-65
2021/11/29 20:00:49;;;;;;;9.55;6.57;;;;;;;;;;5049196;28;20024;-66
2021/11/29 20:03:15;;;;;;;8.82;7.07;;;;;;;;;;5048891;28;20045;-66
2021/11/29 20:05:40;;;;;;;8.88;6.18;;;;;;;;;;5048902;28;20028;-66
2021/11/29 20:08:06;;;;;;;7.75;4.97;;;;;;;;;;5048958;28;20035;-66
2021/11/29 20:10:32;;;;;;;12.25;8.05;;;;;;;;;;5048819;28;20036;-66
2021/11/29 20:12:57;;;;;;;8.50;5.80;;;;;;;;;;5048689;28;20024;-66
